Time;durP1;ratioP1;P1;durP2;ratioP2;P2;SDS_P1;SDS_P2;PMS_P1;PMS_P2;Temp;Humidity;BMP_temperature;BMP_pressure;BME280_temperature;BME280_humidity;BME280_pressure;Samples;Min_cycle;Max_cycle;Signal;HPM_P1;HPM_P2
2023/11/09 00:02:08;;;;;;;4.17;3.50;;;7.70;36.70;;;;;;10279041;28;20247;-76
2023/11/09 00:07:11;;;;;;;3.67;3.37;;;7.70;36.80;;;;;;10276596;28;20238;-76
2023/11/09 00:12:15;;;;;;;3.70;3.40;;;7.70;36.60;;;;;;10278912;28;20242;-76
2023/11/09 00:17:20;;;;;;;3.90;3.20;;;7.60;36.50;;;;;;10275591;28;20234;-76
2023/11/09 00:22:24;;;;;;;4.03;3.30;;;7.60;36.80;;;;;;10277613;28;20238;-76
2023/11/09 00:27:27;;;;;;;3.53;3.23;;;7.60;36.70;;;;;;10273258;28;20246;-76
2023/11/09 00:32:31;;;;;;;3.43;3.13;;;7.70;36.70;;;;;;10268826;28;20242;-76
2023/11/09 00:37:34;;;;;;;4.50;3.60;;;7.70;36.80;;;;;;10276835;28;20314;-76
2023/11/09 00:42:38;;;;;;;3.50;2.87;;;7.70;36.60;;;;;;10272947;28;20224;-76
2023/11/09 00:47:43;;;;;;;4.60;3.13;;;7.70;36.60;;;;;;10279767;28;20234;-76
2023/11/09 00:52:46;;;;;;;3.40;3.10;;;7.70;36.80;;;;;;10269149;28;20235;-76
2023/11/09 00:57:50;;;;;;;3.40;3.10;;;7.70;36.70;;;;;;10276574;28;20733;-76
2023/11/09 01:02:54;;;;;;;3.03;2.77;;;7.70;36.70;;;;;;10277797;28;20328;-75
2023/11/09 01:07:57;;;;;;;4.53;3.17;;;7.70;36.80;;;;;;10274206;28;20741;-76
2023/11/09 01:13:01;;;;;;;3.00;2.80;;;7.70;36.60;;;;;;10277294;28;20228;-76
2023/11/09 01:18:08;;;;;;;2.47;2.27;;;7.70;36.60;;;;;;10273700;28;20238;-76
2023/11/09 01:23:11;;;;;;;2.93;2.63;;;7.60;36.80;;;;;;10275461;28;20251;-76
2023/11/09 01:28:15;;;;;;;3.30;2.90;;;7.70;36.60;;;;;;10268590;28;20247;-76
2023/11/09 01:33:20;;;;;;;3.10;2.80;;;7.70;36.60;;;;;;10257422;28;20678;-75
2023/11/09 01:38:25;;;;;;;3.47;2.80;;;7.60;36.60;;;;;;10267669;28;20333;-75
2023/11/09 01:43:28;;;;;;;2.63;2.40;;;7.70;37.20;;;;;;10274334;28;20219;-75
2023/11/09 01:48:34;;;;;;;3.03;2.73;;;7.70;36.30;;;;;;10268617;28;20307;-75
2023/11/09 01:53:37;;;;;;;2.97;2.73;;;7.70;36.30;;;;;;10269240;28;20767;-75
2023/11/09 01:58:41;;;;;;;3.30;3.00;;;7.60;36.00;;;;;;10270305;28;20311;-75
2023/11/09 02:03:46;;;;;;;3.37;2.40;;;7.60;36.10;;;;;;10267081;28;20229;-75
2023/11/09 02:08:51;;;;;;;2.70;2.50;;;7.60;36.30;;;;;;10261101;28;20248;-75
2023/11/09 02:13:55;;;;;;;2.90;2.70;;;7.50;36.00;;;;;;10267917;28;20258;-75
2023/11/09 02:19:00;;;;;;;4.13;2.60;;;7.40;35.90;;;;;;10275343;28;20228;-75
2023/11/09 02:24:11;;;;;;;2.83;2.53;;;7.40;36.10;;;;;;10275144;28;20220;-75
2023/11/09 02:29:16;;;;;;;3.67;2.90;;;7.30;36.30;;;;;;10273639;28;20249;-75
2023/11/09 02:34:23;;;;;;;2.63;2.43;;;7.30;36.20;;;;;;10279447;28;20231;-75
2023/11/09 02:39:28;;;;;;;2.80;2.60;;;7.20;36.20;;;;;;10275179;28;20255;-74
2023/11/09 02:44:33;;;;;;;2.93;2.40;;;7.20;36.20;;;;;;10277547;28;20638;-75
2023/11/09 02:49:36;;;;;;;2.40;2.13;;;7.20;36.00;;;;;;10274330;28;20692;-74
2023/11/09 02:54:41;;;;;;;2.57;2.37;;;7.10;35.90;;;;;;10273917;28;20219;-74
2023/11/09 02:59:44;;;;;;;3.43;2.70;;;7.00;36.20;;;;;;10275941;28;20228;-74
2023/11/09 03:04:48;;;;;;;5.77;4.23;;;7.00;36.20;;;;;;10270797;28;20215;-74
2023/11/09 03:09:53;;;;;;;5.13;4.50;;;7.00;36.20;;;;;;10271877;28;20231;-74
2023/11/09 03:14:58;;;;;;;4.57;3.80;;;7.00;36.30;;;;;;10273394;28;20742;-74
2023/11/09 03:20:01;;;;;;;3.73;3.43;;;7.00;36.20;;;;;;10274833;28;20680;-74
2023/11/09 03:25:08;;;;;;;2.97;2.77;;;7.10;36.50;;;;;;10271669;28;20220;-74
2023/11/09 03:30:12;;;;;;;3.03;2.73;;;7.00;36.40;;;;;;10270482;28;20304;-74
2023/11/09 03:35:15;;;;;;;2.50;2.30;;;7.10;36.40;;;;;;10271681;28;20242;-74
2023/11/09 03:40:20;;;;;;;3.83;2.33;;;7.00;36.10;;;;;;10271899;28;20231;-74
2023/11/09 03:45:23;;;;;;;2.57;2.37;;;7.00;36.30;;;;;;10267248;28;20306;-73
2023/11/09 03:50:27;;;;;;;2.43;2.10;;;7.00;36.20;;;;;;10269373;28;20232;-74
2023/11/09 03:55:32;;;;;;;2.43;2.23;;;7.00;36.00;;;;;;10271192;28;20319;-73
2023/11/09 04:00:35;;;;;;;2.40;2.23;;;6.90;36.00;;;;;;10268880;28;20239;-73
2023/11/09 04:05:38;;;;;;;2.57;2.37;;;6.90;36.00;;;;;;10271456;28;20240;-73
2023/11/09 04:10:43;;;;;;;3.27;2.37;;;6.80;36.00;;;;;;10270046;28;20236;-73
2023/11/09 04:15:46;;;;;;;2.13;2.03;;;6.70;36.20;;;;;;10265699;28;20974;-73
2023/11/09 04:20:49;;;;;;;3.23;2.70;;;6.70;36.20;;;;;;10273569;28;20239;-73
2023/11/09 04:25:53;;;;;;;2.07;1.97;;;6.70;36.20;;;;;;10270800;28;20220;-73
2023/11/09 04:30:57;;;;;;;2.30;2.00;;;6.70;36.90;;;;;;10269580;28;20711;-73
2023/11/09 04:36:05;;;;;;;2.37;2.17;;;6.60;36.10;;;;;;10269567;28;20231;-73
2023/11/09 04:41:12;;;;;;;2.37;2.17;;;6.60;36.30;;;;;;10272038;28;20224;-73
2023/11/09 04:46:18;;;;;;;2.57;2.20;;;6.60;36.40;;;;;;10268480;28;20228;-73
2023/11/09 04:51:22;;;;;;;2.20;2.10;;;6.50;36.30;;;;;;10270115;28;21245;-73
2023/11/09 04:56:39;;;;;;;2.57;2.37;;;6.60;36.30;;;;;;10266874;28;20227;-73
2023/11/09 05:07:03;;;;;;;2.87;2.07;;;6.60;36.20;;;;;;10268099;28;20746;-72
2023/11/09 05:12:08;;;;;;;3.03;2.73;;;6.60;36.20;;;;;;10267897;28;20761;-73
2023/11/09 05:17:13;;;;;;;4.17;3.00;;;6.50;36.20;;;;;;10264238;28;20231;-72
2023/11/09 05:22:17;;;;;;;2.47;2.27;;;6.50;36.20;;;;;;10267669;28;20236;-72
2023/11/09 05:27:22;;;;;;;2.80;2.60;;;6.50;36.20;;;;;;10264357;28;20239;-72
2023/11/09 05:32:25;;;;;;;2.90;2.70;;;6.50;36.50;;;;;;10268968;28;20232;-72
2023/11/09 05:37:29;;;;;;;2.57;2.37;;;6.40;36.20;;;;;;10265539;28;20236;-72
2023/11/09 05:42:33;;;;;;;6.50;5.90;;;6.40;36.20;;;;;;10267225;28;20892;-72
2023/11/09 05:47:37;;;;;;;3.47;3.17;;;6.40;36.20;;;;;;10261983;28;20228;-72
2023/11/09 05:52:41;;;;;;;3.23;3.03;;;6.30;36.10;;;;;;10272013;28;20231;-71
2023/11/09 05:57:45;;;;;;;9.93;7.70;;;6.20;36.20;;;;;;10268532;28;20236;-72
2023/11/09 06:02:48;;;;;;;8.20;7.00;;;6.10;36.50;;;;;;10267554;28;21385;-72
2023/11/09 06:07:52;;;;;;;7.57;5.53;;;6.10;36.50;;;;;;10267026;28;20306;-72
2023/11/09 06:12:57;;;;;;;6.40;5.37;;;6.10;36.40;;;;;;10267919;28;20244;-73
2023/11/09 06:18:01;;;;;;;7.33;5.10;;;6.10;37.20;;;;;;10276597;28;20722;-74
2023/11/09 06:23:04;;;;;;;8.63;5.93;;;6.10;37.50;;;;;;10281524;28;20928;-73
2023/11/09 06:28:09;;;;;;;6.80;5.37;;;6.10;37.00;;;;;;10277487;28;20227;-73
2023/11/09 06:33:12;;;;;;;5.73;4.97;;;6.10;37.30;;;;;;10277859;28;20275;-73
2023/11/09 06:38:19;;;;;;;4.97;4.57;;;6.10;37.20;;;;;;10281397;28;20235;-73
2023/11/09 06:43:25;;;;;;;5.00;4.60;;;6.00;36.80;;;;;;10276743;28;20236;-73
2023/11/09 06:48:28;;;;;;;5.33;4.83;;;6.00;37.20;;;;;;10276270;28;20236;-73
2023/11/09 06:53:32;;;;;;;4.70;4.30;;;6.00;37.20;;;;;;10277169;28;20236;-73
2023/11/09 06:58:36;;;;;;;4.20;3.80;;;6.00;37.60;;;;;;10277469;28;21181;-73
2023/11/09 07:03:39;;;;;;;4.00;2.63;;;6.00;37.60;;;;;;10278161;28;20232;-73
2023/11/09 07:08:43;;;;;;;3.27;2.50;;;5.90;37.50;;;;;;10287785;28;20247;-74
2023/11/09 07:13:47;;;;;;;2.70;2.50;;;5.90;37.50;;;;;;10293462;28;20232;-73
2023/11/09 07:18:52;;;;;;;2.53;2.33;;;5.90;37.60;;;;;;10283959;28;20338;-75
2023/11/09 07:23:59;;;;;;;4.07;2.40;;;5.90;37.50;;;;;;10281752;28;20227;-73
2023/11/09 07:29:04;;;;;;;2.60;2.40;;;6.00;37.60;;;;;;10291833;28;20314;-74
2023/11/09 07:34:07;;;;;;;2.57;2.30;;;6.10;37.80;;;;;;10279772;28;20760;-74
2023/11/09 07:39:10;;;;;;;2.30;2.00;;;6.20;37.80;;;;;;10275629;28;20778;-74
2023/11/09 07:44:15;;;;;;;2.40;2.20;;;6.40;37.90;;;;;;10275011;28;20601;-74
2023/11/09 07:49:18;;;;;;;3.07;2.60;;;6.60;38.60;;;;;;10272010;28;20323;-74
2023/11/09 07:54:22;;;;;;;3.17;2.63;;;6.80;38.30;;;;;;10272053;28;20655;-74
2023/11/09 07:59:26;;;;;;;3.80;3.50;;;6.90;38.30;;;;;;10270606;28;20233;-74
2023/11/09 08:04:30;;;;;;;5.43;4.97;;;7.10;38.50;;;;;;10273104;28;20262;-74
2023/11/09 08:09:35;;;;;;;2.73;2.53;;;7.30;38.70;;;;;;10269118;28;20235;-75
2023/11/09 08:14:39;;;;;;;2.57;2.30;;;7.50;38.80;;;;;;10276004;28;20238;-74
2023/11/09 08:19:42;;;;;;;2.30;2.10;;;7.80;39.10;;;;;;10271955;28;20235;-76
2023/11/09 08:24:46;;;;;;;3.33;2.03;;;8.00;38.80;;;;;;10273974;28;20231;-76
2023/11/09 08:29:51;;;;;;;2.60;2.40;;;8.20;38.70;;;;;;10266289;28;20239;-77
2023/11/09 08:34:54;;;;;;;3.60;3.30;;;8.40;39.20;;;;;;10269058;28;20263;-76
2023/11/09 08:39:58;;;;;;;2.77;2.57;;;8.60;39.20;;;;;;10268903;28;20227;-78
2023/11/09 08:45:03;;;;;;;2.20;2.00;;;8.80;39.00;;;;;;10275555;28;20713;-79
2023/11/09 08:50:09;;;;;;;3.67;2.13;;;9.00;39.30;;;;;;10283637;28;20227;-77
2023/11/09 08:55:13;;;;;;;4.17;2.00;;;9.30;38.90;;;;;;10278094;28;20219;-77
2023/11/09 09:00:18;;;;;;;3.70;2.00;;;9.50;38.60;;;;;;10269650;28;20695;-75
2023/11/09 09:05:23;;;;;;;2.33;1.60;;;9.70;38.40;;;;;;10268117;28;20236;-74
2023/11/09 09:10:28;;;;;;;1.80;1.70;;;9.90;38.10;;;;;;10268120;28;20303;-75
2023/11/09 09:15:33;;;;;;;2.43;2.00;;;10.10;37.30;;;;;;10256615;28;20231;-75
2023/11/09 09:20:37;;;;;;;2.27;2.07;;;10.30;36.90;;;;;;10272271;28;20237;-75
2023/11/09 09:25:41;;;;;;;3.93;2.63;;;10.40;36.80;;;;;;10267347;28;20224;-75
2023/11/09 09:30:49;;;;;;;2.60;2.40;;;10.60;36.60;;;;;;10265562;28;20238;-74
2023/11/09 09:35:52;;;;;;;3.17;2.80;;;10.80;36.60;;;;;;10269685;28;20220;-74
2023/11/09 09:40:56;;;;;;;3.03;2.00;;;10.90;36.60;;;;;;10268302;28;20231;-75
2023/11/09 09:46:01;;;;;;;3.67;2.20;;;11.10;36.50;;;;;;10265223;28;20237;-74
2023/11/09 09:51:09;;;;;;;3.30;2.23;;;11.30;36.50;;;;;;10267946;28;20944;-74
2023/11/09 09:56:13;;;;;;;2.47;2.10;;;11.40;36.20;;;;;;10265868;28;20256;-75
2023/11/09 10:01:19;;;;;;;2.37;2.13;;;11.60;36.20;;;;;;10267649;28;20235;-75
2023/11/09 10:06:22;;;;;;;2.13;2.00;;;11.80;36.00;;;;;;10267555;28;20808;-75
2023/11/09 10:11:26;;;;;;;1.87;1.63;;;12.00;36.00;;;;;;10260953;28;20231;-75
2023/11/09 10:16:34;;;;;;;3.70;1.90;;;12.20;35.80;;;;;;10269618;28;20231;-75
2023/11/09 10:21:38;;;;;;;2.30;2.00;;;12.30;34.90;;;;;;10264832;28;20710;-75
2023/11/09 10:26:44;;;;;;;2.67;1.90;;;12.50;35.60;;;;;;10261834;28;20248;-74
2023/11/09 10:31:49;;;;;;;2.20;2.00;;;12.60;35.60;;;;;;10263966;28;20230;-75
2023/11/09 10:36:56;;;;;;;2.47;1.93;;;12.80;35.50;;;;;;10261852;28;20706;-74
2023/11/09 10:42:01;;;;;;;3.43;1.80;;;12.90;35.50;;;;;;10272463;28;20227;-75
2023/11/09 10:47:08;;;;;;;2.10;1.90;;;13.00;35.30;;;;;;10270568;28;20228;-74
2023/11/09 10:52:14;;;;;;;2.00;1.80;;;13.00;35.00;;;;;;10273229;28;20323;-75
2023/11/09 10:57:19;;;;;;;1.67;1.57;;;13.10;35.00;;;;;;10274709;28;20251;-75
2023/11/09 11:02:27;;;;;;;1.53;1.40;;;13.20;34.70;;;;;;10270691;28;20287;-75
2023/11/09 11:07:35;;;;;;;2.00;1.40;;;13.40;34.00;;;;;;10272735;28;21320;-75
2023/11/09 11:12:44;;;;;;;1.30;1.20;;;13.50;34.40;;;;;;10273737;28;20224;-75
2023/11/09 11:17:56;;;;;;;1.60;1.50;;;13.60;34.50;;;;;;10270823;28;20248;-75
2023/11/09 11:23:54;;;;;;;1.97;1.83;;;13.70;33.10;;;;;;10271884;28;20270;-75
2023/11/09 11:29:00;;;;;;;1.97;1.87;;;13.80;33.40;;;;;;10270618;28;20231;-74
2023/11/09 11:34:07;;;;;;;1.70;1.60;;;13.90;34.00;;;;;;10270741;28;20231;-75
2023/11/09 11:39:20;;;;;;;1.43;1.33;;;14.00;33.70;;;;;;10268404;28;20258;-75
2023/11/09 11:44:24;;;;;;;2.03;1.40;;;14.20;34.00;;;;;;10271641;28;20232;-75
2023/11/09 11:49:42;;;;;;;2.47;1.50;;;14.40;34.00;;;;;;10271733;28;20325;-75
2023/11/09 11:54:51;;;;;;;1.57;1.47;;;14.60;33.20;;;;;;10271489;28;20224;-74
2023/11/09 12:00:08;;;;;;;1.73;1.30;;;14.70;33.20;;;;;;10269218;28;20258;-75
2023/11/09 12:05:15;;;;;;;2.23;1.37;;;14.80;32.00;;;;;;10274260;28;20227;-74
2023/11/09 12:10:21;;;;;;;1.60;1.30;;;15.00;32.20;;;;;;10279653;28;20263;-74
2023/11/09 12:15:28;;;;;;;1.27;1.20;;;15.10;33.10;;;;;;10277674;28;20258;-73
2023/11/09 12:20:33;;;;;;;1.30;1.20;;;15.20;32.90;;;;;;10275719;28;20259;-73
2023/11/09 12:25:49;;;;;;;1.13;1.10;;;15.30;32.40;;;;;;10283920;28;20275;-74
2023/11/09 12:30:53;;;;;;;1.20;1.10;;;15.40;30.90;;;;;;10282870;28;20227;-74
2023/11/09 12:36:04;;;;;;;1.43;1.27;;;15.50;32.60;;;;;;10285575;28;20306;-74
2023/11/09 12:41:07;;;;;;;1.60;1.20;;;15.60;31.50;;;;;;10246927;28;20656;-74
2023/11/09 12:46:14;;;;;;;1.60;1.30;;;15.70;32.70;;;;;;10284326;28;20228;-74
2023/11/09 12:51:22;;;;;;;1.27;1.17;;;15.80;32.80;;;;;;10283254;28;20239;-74
2023/11/09 12:56:25;;;;;;;1.30;1.20;;;15.80;31.70;;;;;;10281116;28;20231;-74
2023/11/09 13:01:38;;;;;;;1.60;1.40;;;15.80;32.20;;;;;;10283696;28;20302;-74
2023/11/09 13:06:43;;;;;;;1.40;1.30;;;15.80;32.80;;;;;;10257579;28;20314;-75
2023/11/09 13:11:46;;;;;;;1.70;1.60;;;15.90;31.90;;;;;;10258649;28;20231;-75
2023/11/09 13:16:50;;;;;;;2.10;2.00;;;15.90;32.30;;;;;;10260887;28;20934;-75
2023/11/09 13:21:55;;;;;;;3.10;1.83;;;15.90;32.40;;;;;;10256772;28;20294;-76
2023/11/09 13:26:58;;;;;;;1.93;1.30;;;15.90;32.00;;;;;;10257124;28;20314;-75
2023/11/09 13:32:01;;;;;;;1.50;1.30;;;15.80;32.20;;;;;;10256231;28;20238;-76
2023/11/09 13:37:06;;;;;;;1.90;1.40;;;15.80;32.20;;;;;;10254904;28;20247;-75
2023/11/09 13:42:20;;;;;;;1.23;1.13;;;15.80;31.70;;;;;;10262087;28;20311;-74
2023/11/09 13:47:27;;;;;;;2.50;1.27;;;15.70;31.80;;;;;;10263386;28;20998;-75
2023/11/09 13:52:38;;;;;;;1.30;1.20;;;15.70;32.20;;;;;;10261502;28;20345;-73
2023/11/09 13:57:45;;;;;;;1.30;1.20;;;15.60;31.70;;;;;;10261218;28;20314;-76
2023/11/09 14:02:48;;;;;;;2.47;1.60;;;15.60;31.80;;;;;;10266133;28;20734;-74
2023/11/09 14:07:54;;;;;;;1.47;1.37;;;15.60;31.90;;;;;;10256260;28;20235;-74
2023/11/09 14:13:09;;;;;;;2.63;1.77;;;15.60;31.50;;;;;;10258180;28;20257;-79
2023/11/09 14:18:35;;;;;;;2.20;1.93;;;15.60;32.00;;;;;;10257132;28;20318;-75
2023/11/09 14:23:39;;;;;;;2.27;1.90;;;15.50;31.80;;;;;;10273697;28;20243;-77
2023/11/09 14:28:44;;;;;;;1.50;1.40;;;15.50;31.60;;;;;;10270736;28;20231;-77
2023/11/09 14:33:49;;;;;;;2.57;1.40;;;15.50;31.90;;;;;;10273810;28;20238;-77
2023/11/09 14:38:54;;;;;;;1.70;1.60;;;15.40;31.80;;;;;;10275955;28;20231;-77
2023/11/09 14:43:58;;;;;;;2.53;1.40;;;15.40;31.50;;;;;;10280928;28;20812;-76
2023/11/09 14:49:01;;;;;;;1.60;1.50;;;15.30;31.80;;;;;;10274504;28;20231;-77
2023/11/09 14:54:09;;;;;;;1.53;1.43;;;15.20;32.00;;;;;;10278923;28;20326;-77
2023/11/09 14:59:14;;;;;;;2.30;1.70;;;15.20;32.00;;;;;;10285829;28;20232;-77
2023/11/09 15:04:20;;;;;;;1.67;1.50;;;15.10;32.20;;;;;;10280633;28;20227;-76
2023/11/09 15:09:31;;;;;;;2.73;2.30;;;15.10;32.20;;;;;;10271939;28;20236;-77
2023/11/09 15:14:35;;;;;;;2.73;2.37;;;15.10;32.10;;;;;;10277361;28;20236;-75
2023/11/09 15:19:39;;;;;;;6.50;5.40;;;15.00;32.10;;;;;;10279622;28;20223;-76
2023/11/09 15:24:44;;;;;;;3.43;3.13;;;14.90;32.00;;;;;;10271132;28;20231;-76
2023/11/09 15:29:48;;;;;;;3.90;2.97;;;14.70;31.80;;;;;;10275544;28;20239;-76
2023/11/09 15:34:52;;;;;;;3.30;3.00;;;14.60;31.80;;;;;;10272594;28;20242;-77
2023/11/09 15:39:56;;;;;;;3.70;2.80;;;14.60;32.00;;;;;;10267866;28;20230;-78
2023/11/09 15:45:23;;;;;;;5.30;4.83;;;14.50;31.90;;;;;;10284598;28;20227;-76
2023/11/09 15:50:26;;;;;;;4.23;3.83;;;14.50;32.20;;;;;;10262853;28;20227;-76
2023/11/09 15:55:30;;;;;;;3.70;3.40;;;14.40;32.10;;;;;;10260870;28;20240;-76
2023/11/09 16:00:37;;;;;;;5.73;4.30;;;14.40;32.40;;;;;;10263522;28;20234;-76
2023/11/09 16:05:42;;;;;;;7.43;5.80;;;14.30;33.30;;;;;;10263686;28;20310;-77
2023/11/09 16:10:47;;;;;;;4.73;3.50;;;14.30;32.90;;;;;;10267547;28;20243;-75
2023/11/09 16:15:50;;;;;;;4.73;4.27;;;14.30;32.90;;;;;;10266966;28;20619;-76
2023/11/09 16:20:53;;;;;;;6.60;5.90;;;14.20;33.00;;;;;;10269435;28;20224;-76
2023/11/09 16:25:58;;;;;;;5.13;4.70;;;14.10;33.30;;;;;;10270888;28;20226;-76
2023/11/09 16:31:03;;;;;;;6.97;6.37;;;14.00;33.20;;;;;;10264413;28;20780;-76
2023/11/09 16:36:12;;;;;;;7.50;6.83;;;14.00;33.40;;;;;;10269019;28;20235;-77
2023/11/09 16:41:16;;;;;;;6.10;5.50;;;13.90;33.50;;;;;;10271530;28;20711;-77
2023/11/09 16:46:23;;;;;;;6.47;5.20;;;13.90;33.80;;;;;;10267282;28;20236;-77
2023/11/09 16:51:26;;;;;;;5.73;4.73;;;13.90;33.80;;;;;;10265982;28;20231;-76
2023/11/09 16:56:31;;;;;;;6.03;4.50;;;13.90;34.00;;;;;;10271982;28;20235;-76
2023/11/09 17:01:34;;;;;;;5.57;4.27;;;13.90;34.00;;;;;;10269802;28;20228;-76
2023/11/09 17:06:38;;;;;;;5.73;5.13;;;13.80;33.90;;;;;;10265093;28;20281;-76
2023/11/09 17:11:42;;;;;;;4.63;4.23;;;13.80;33.90;;;;;;10268139;28;20221;-76
2023/11/09 17:16:45;;;;;;;6.23;5.23;;;13.80;33.80;;;;;;10263629;28;21041;-76
2023/11/09 17:21:49;;;;;;;6.33;5.80;;;13.80;33.70;;;;;;10267942;28;20220;-77
2023/11/09 17:26:53;;;;;;;5.10;4.60;;;13.70;33.40;;;;;;10269289;28;20227;-77
2023/11/09 17:31:56;;;;;;;4.43;4.03;;;13.70;33.50;;;;;;10266235;28;20239;-76
2023/11/09 17:37:00;;;;;;;4.37;3.80;;;13.60;33.60;;;;;;10271515;28;20234;-77
2023/11/09 17:42:05;;;;;;;3.73;3.43;;;13.50;33.70;;;;;;10274293;28;20216;-76
2023/11/09 17:47:08;;;;;;;4.37;3.67;;;13.50;33.60;;;;;;10266366;28;20234;-77
2023/11/09 17:52:11;;;;;;;5.70;4.50;;;13.50;33.60;;;;;;10265311;28;20244;-76
2023/11/09 17:57:16;;;;;;;5.40;4.90;;;13.50;33.60;;;;;;10271016;28;20323;-77
2023/11/09 18:02:21;;;;;;;7.03;5.63;;;13.40;33.50;;;;;;10263211;28;20224;-77
2023/11/09 18:07:24;;;;;;;6.10;5.60;;;13.40;33.60;;;;;;10269976;28;20255;-75
2023/11/09 18:12:29;;;;;;;14.03;12.57;;;13.40;33.70;;;;;;10282787;28;20231;-74
2023/11/09 18:17:34;;;;;;;22.40;20.00;;;13.40;33.70;;;;;;10281496;28;20231;-74
2023/11/09 18:22:38;;;;;;;13.80;12.40;;;13.40;33.50;;;;;;10281149;28;20235;-75
2023/11/09 18:27:43;;;;;;;11.00;9.60;;;13.40;33.60;;;;;;10275534;28;20228;-76
2023/11/09 18:32:46;;;;;;;8.60;7.30;;;13.30;33.70;;;;;;10272960;28;20310;-76
2023/11/09 18:37:49;;;;;;;7.27;6.37;;;13.20;33.70;;;;;;10279028;28;20237;-75
2023/11/09 18:42:54;;;;;;;7.03;5.80;;;13.10;33.70;;;;;;10280018;28;20224;-76
2023/11/09 18:47:57;;;;;;;7.57;6.57;;;13.00;33.90;;;;;;10276160;28;20323;-76
2023/11/09 18:53:03;;;;;;;10.60;7.73;;;13.00;33.90;;;;;;10275926;28;20235;-75
2023/11/09 18:58:08;;;;;;;7.27;6.53;;;13.00;33.90;;;;;;10274602;28;20275;-75
2023/11/09 19:03:11;;;;;;;8.27;6.83;;;13.00;33.90;;;;;;10281844;28;20267;-75
2023/11/09 19:08:20;;;;;;;9.20;8.27;;;13.00;34.00;;;;;;10282614;28;20257;-76
2023/11/09 19:13:26;;;;;;;7.23;5.90;;;13.00;34.00;;;;;;10274800;28;20769;-76
2023/11/09 19:18:29;;;;;;;7.67;6.43;;;13.00;34.00;;;;;;10279741;28;20235;-75
2023/11/09 19:23:32;;;;;;;6.30;5.70;;;13.00;33.90;;;;;;10277534;28;20231;-75
2023/11/09 19:28:37;;;;;;;6.33;5.47;;;12.90;33.90;;;;;;10281494;28;20239;-75
2023/11/09 19:33:40;;;;;;;10.30;9.20;;;12.80;34.00;;;;;;10276992;28;20307;-75
2023/11/09 19:38:43;;;;;;;7.07;6.47;;;12.80;34.00;;;;;;10276581;28;20287;-76
2023/11/09 19:43:47;;;;;;;6.43;5.83;;;12.80;34.00;;;;;;10281320;28;20228;-76
2023/11/09 19:48:51;;;;;;;6.53;5.07;;;12.70;34.20;;;;;;10284667;28;20287;-76
2023/11/09 19:53:54;;;;;;;5.53;5.03;;;12.70;34.30;;;;;;10276344;28;20346;-76
2023/11/09 19:58:59;;;;;;;6.27;5.67;;;12.60;34.40;;;;;;10274412;28;20342;-76
2023/11/09 20:04:03;;;;;;;6.90;6.07;;;12.60;34.60;;;;;;10280152;28;20314;-76
2023/11/09 20:09:06;;;;;;;5.97;4.80;;;12.50;34.60;;;;;;10272995;28;20322;-76
2023/11/09 20:14:12;;;;;;;6.10;4.77;;;12.50;34.70;;;;;;10275424;28;20243;-76
2023/11/09 20:19:16;;;;;;;8.40;4.77;;;12.50;35.10;;;;;;10281310;28;20610;-76
2023/11/09 20:24:19;;;;;;;4.97;4.47;;;12.50;34.80;;;;;;10279257;28;20233;-76
2023/11/09 20:29:25;;;;;;;4.67;4.27;;;12.40;34.90;;;;;;10276004;28;20251;-76
2023/11/09 20:34:29;;;;;;;4.40;4.00;;;12.40;35.30;;;;;;10282015;28;20227;-75
2023/11/09 20:39:38;;;;;;;3.77;3.47;;;12.30;35.20;;;;;;10280594;28;20235;-77
2023/11/09 20:44:42;;;;;;;4.00;3.70;;;12.30;35.50;;;;;;10283672;28;20255;-77
2023/11/09 20:49:46;;;;;;;3.87;3.47;;;12.20;35.80;;;;;;10271490;28;20765;-77
2023/11/09 20:54:50;;;;;;;4.60;3.07;;;12.20;35.80;;;;;;10276287;28;20373;-77
2023/11/09 20:59:54;;;;;;;2.90;2.70;;;12.20;35.90;;;;;;10281354;28;20238;-76
2023/11/09 21:04:58;;;;;;;2.50;2.30;;;12.20;36.30;;;;;;10266044;28;20230;-80
2023/11/09 21:10:01;;;;;;;2.73;2.50;;;12.20;36.10;;;;;;10270549;28;21162;-80
2023/11/09 21:15:07;;;;;;;2.00;1.90;;;12.10;36.30;;;;;;10260923;28;20255;-80
2023/11/09 21:20:15;;;;;;;1.87;1.70;;;12.00;37.00;;;;;;10268744;28;20245;-80
2023/11/09 21:25:19;;;;;;;1.77;1.67;;;12.00;37.00;;;;;;10272451;28;20279;-80
2023/11/09 21:30:26;;;;;;;3.73;2.00;;;12.00;37.00;;;;;;10272064;28;20258;-80
2023/11/09 21:35:31;;;;;;;2.23;2.03;;;11.90;37.70;;;;;;10264334;28;20242;-79
2023/11/09 21:40:37;;;;;;;2.10;2.00;;;11.80;37.60;;;;;;10264235;28;20278;-81
2023/11/09 21:45:41;;;;;;;2.67;1.70;;;11.80;37.60;;;;;;10269292;28;20295;-80
2023/11/09 21:50:45;;;;;;;1.80;1.70;;;11.80;38.10;;;;;;10266283;28;20320;-80
2023/11/09 21:55:48;;;;;;;1.70;1.60;;;11.80;38.00;;;;;;10270779;28;20278;-80
2023/11/09 22:00:54;;;;;;;1.80;1.70;;;11.80;38.00;;;;;;10264179;28;20367;-80
2023/11/09 22:05:57;;;;;;;2.20;2.00;;;11.80;38.70;;;;;;10267671;28;20227;-80
2023/11/09 22:11:00;;;;;;;1.83;1.73;;;11.80;38.10;;;;;;10269774;28;20259;-80
2023/11/09 22:16:06;;;;;;;1.83;1.70;;;11.80;38.20;;;;;;10273699;28;20341;-80
2023/11/09 22:21:15;;;;;;;1.60;1.50;;;11.80;38.80;;;;;;10269895;28;20385;-80
2023/11/09 22:26:19;;;;;;;1.70;1.60;;;11.80;39.00;;;;;;10270448;28;21180;-80
2023/11/09 22:31:24;;;;;;;1.70;1.60;;;11.80;38.10;;;;;;10268343;28;20843;-80
2023/11/09 22:36:28;;;;;;;2.40;1.57;;;11.90;38.40;;;;;;10278322;28;20249;-80
2023/11/09 22:41:31;;;;;;;2.00;1.80;;;11.90;38.00;;;;;;10277568;28;20797;-79
2023/11/09 22:46:41;;;;;;;1.70;1.60;;;12.00;37.90;;;;;;10277375;28;20286;-79
2023/11/09 22:51:44;;;;;;;1.70;1.60;;;12.00;38.20;;;;;;10279346;28;20252;-80
2023/11/09 22:56:47;;;;;;;2.00;1.90;;;12.00;37.70;;;;;;10280443;28;20649;-79
2023/11/09 23:01:52;;;;;;;1.90;1.80;;;12.00;37.60;;;;;;10277044;28;20238;-79
2023/11/09 23:06:57;;;;;;;2.00;1.90;;;12.00;37.80;;;;;;10276197;28;20823;-78
2023/11/09 23:12:00;;;;;;;1.73;1.63;;;12.00;37.60;;;;;;10275951;28;20231;-80
2023/11/09 23:17:06;;;;;;;1.90;1.70;;;11.90;37.60;;;;;;10270086;28;20930;-80
2023/11/09 23:22:10;;;;;;;1.83;1.73;;;11.90;37.70;;;;;;10276283;28;20234;-79
2023/11/09 23:27:13;;;;;;;2.07;1.87;;;11.80;37.40;;;;;;10275679;28;20240;-79
2023/11/09 23:32:18;;;;;;;2.70;2.00;;;11.80;37.40;;;;;;10272391;28;20287;-79
2023/11/09 23:37:22;;;;;;;1.90;1.80;;;11.70;37.60;;;;;;10272084;28;20245;-79
2023/11/09 23:42:25;;;;;;;2.33;2.13;;;11.70;37.50;;;;;;10270759;28;20234;-80
2023/11/09 23:47:29;;;;;;;2.27;2.07;;;11.70;37.40;;;;;;10275438;28;20278;-79
2023/11/09 23:52:33;;;;;;;2.40;2.20;;;11.70;37.50;;;;;;10274539;28;20228;-80
2023/11/09 23:57:36;;;;;;;2.43;2.23;;;11.60;37.20;;;;;;10274661;28;20236;-79
